sensor_id;sensor_type;location;lat;lon;timestamp;pressure;altitude;pressure_sealevel;temperature;humidity
23223;BME280;11780;13.904;100.620;2023-04-30T00:00:30;100845.63;;;31.55;71.99
23223;BME280;11780;13.904;100.620;2023-04-30T00:03:01;100856.53;;;31.60;72.25
23223;BME280;11780;13.904;100.620;2023-04-30T00:05:32;100851.63;;;31.57;72.07
23223;BME280;11780;13.904;100.620;2023-04-30T00:08:03;100863.34;;;31.63;72.43
23223;BME280;11780;13.904;100.620;2023-04-30T00:10:34;100861.06;;;31.65;72.23
23223;BME280;11780;13.904;100.620;2023-04-30T00:13:05;100863.66;;;31.61;72.54
23223;BME280;11780;13.904;100.620;2023-04-30T00:15:36;100866.59;;;31.65;72.09
23223;BME280;11780;13.904;100.620;2023-04-30T00:18:06;100866.09;;;31.63;72.04
23223;BME280;11780;13.904;100.620;2023-04-30T00:20:36;100871.16;;;31.61;72.27
23223;BME280;11780;13.904;100.620;2023-04-30T00:23:07;100879.78;;;31.59;72.54
23223;BME280;11780;13.904;100.620;2023-04-30T00:25:37;100884.81;;;31.66;72.27
23223;BME280;11780;13.904;100.620;2023-04-30T00:28:08;100897.50;;;31.67;72.41
23223;BME280;11780;13.904;100.620;2023-04-30T00:30:38;100905.13;;;31.61;72.30
23223;BME280;11780;13.904;100.620;2023-04-30T00:33:08;100906.09;;;31.65;72.46
23223;BME280;11780;13.904;100.620;2023-04-30T00:35:38;100910.66;;;31.61;72.38
23223;BME280;11780;13.904;100.620;2023-04-30T00:38:09;100917.50;;;31.64;72.34
23223;BME280;11780;13.904;100.620;2023-04-30T00:40:40;100922.03;;;31.59;72.91
23223;BME280;11780;13.904;100.620;2023-04-30T00:43:12;100917.66;;;31.58;72.86
23223;BME280;11780;13.904;100.620;2023-04-30T00:45:42;100917.66;;;31.58;73.03
23223;BME280;11780;13.904;100.620;2023-04-30T00:48:13;100923.34;;;31.62;72.94
23223;BME280;11780;13.904;100.620;2023-04-30T00:50:44;100930.88;;;31.70;72.83
23223;BME280;11780;13.904;100.620;2023-04-30T00:53:14;100943.69;;;31.66;73.13
23223;BME280;11780;13.904;100.620;2023-04-30T00:55:47;100953.09;;;31.56;73.03
23223;BME280;11780;13.904;100.620;2023-04-30T00:58:18;100965.78;;;31.49;73.49
23223;BME280;11780;13.904;100.620;2023-04-30T01:00:49;100971.97;;;31.37;73.84
23223;BME280;11780;13.904;100.620;2023-04-30T01:03:21;100971.47;;;31.43;73.72
23223;BME280;11780;13.904;100.620;2023-04-30T01:05:51;100978.47;;;31.50;73.63
23223;BME280;11780;13.904;100.620;2023-04-30T01:08:22;100967.56;;;31.53;73.63
23223;BME280;11780;13.904;100.620;2023-04-30T01:11:39;100965.63;;;31.54;73.83
23223;BME280;11780;13.904;100.620;2023-04-30T01:16:35;100970.34;;;31.62;73.28
23223;BME280;11780;13.904;100.620;2023-04-30T01:19:16;100976.84;;;31.57;73.31
23223;BME280;11780;13.904;100.620;2023-04-30T01:21:49;100983.34;;;31.53;73.81
23223;BME280;11780;13.904;100.620;2023-04-30T01:27:28;100993.13;;;31.59;73.84
23223;BME280;11780;13.904;100.620;2023-04-30T01:30:01;100994.59;;;31.65;73.70
23223;BME280;11780;13.904;100.620;2023-04-30T01:32:32;100997.25;;;31.70;74.12
23223;BME280;11780;13.904;100.620;2023-04-30T01:35:03;101010.09;;;31.75;73.24
23223;BME280;11780;13.904;100.620;2023-04-30T01:40:43;100992.72;;;31.83;73.46
23223;BME280;11780;13.904;100.620;2023-04-30T01:43:34;100998.25;;;31.92;73.29
23223;BME280;11780;13.904;100.620;2023-04-30T01:46:25;101015.97;;;32.09;73.13
23223;BME280;11780;13.904;100.620;2023-04-30T01:49:14;101029.66;;;32.23;70.75
23223;BME280;11780;13.904;100.620;2023-04-30T01:51:52;101039.72;;;32.18;68.09
23223;BME280;11780;13.904;100.620;2023-04-30T01:57:31;101036.81;;;32.06;66.08
23223;BME280;11780;13.904;100.620;2023-04-30T02:00:04;101020.03;;;31.76;65.25
23223;BME280;11780;13.904;100.620;2023-04-30T02:02:39;101013.06;;;31.29;66.02
23223;BME280;11780;13.904;100.620;2023-04-30T02:05:10;100987.56;;;31.01;65.07
23223;BME280;11780;13.904;100.620;2023-04-30T02:07:42;100995.78;;;31.15;65.36
23223;BME280;11780;13.904;100.620;2023-04-30T02:10:15;101004.41;;;31.22;65.09
23223;BME280;11780;13.904;100.620;2023-04-30T02:12:46;101005.91;;;31.28;65.54
23223;BME280;11780;13.904;100.620;2023-04-30T02:15:17;101000.03;;;31.21;64.74
23223;BME280;11780;13.904;100.620;2023-04-30T02:17:48;101003.78;;;31.25;64.83
23223;BME280;11780;13.904;100.620;2023-04-30T02:20:19;101017.56;;;31.17;64.90
23223;BME280;11780;13.904;100.620;2023-04-30T02:22:50;101045.22;;;31.25;64.46
23223;BME280;11780;13.904;100.620;2023-04-30T02:25:20;101037.44;;;31.27;64.21
23223;BME280;11780;13.904;100.620;2023-04-30T02:27:51;101032.25;;;31.26;64.26
23223;BME280;11780;13.904;100.620;2023-04-30T02:30:21;101041.81;;;31.28;64.47
23223;BME280;11780;13.904;100.620;2023-04-30T02:32:52;101030.47;;;31.39;64.72
23223;BME280;11780;13.904;100.620;2023-04-30T02:35:23;101044.28;;;31.39;65.85
23223;BME280;11780;13.904;100.620;2023-04-30T02:37:53;101067.88;;;31.36;65.59
23223;BME280;11780;13.904;100.620;2023-04-30T02:40:24;101066.59;;;31.42;65.76
23223;BME280;11780;13.904;100.620;2023-04-30T02:42:55;101052.88;;;31.28;66.46
23223;BME280;11780;13.904;100.620;2023-04-30T02:45:26;101041.50;;;31.30;66.53
23223;BME280;11780;13.904;100.620;2023-04-30T02:47:56;101056.28;;;31.25;67.00
23223;BME280;11780;13.904;100.620;2023-04-30T02:50:28;101070.38;;;31.15;66.92
23223;BME280;11780;13.904;100.620;2023-04-30T02:52:58;101082.38;;;30.88;67.08
23223;BME280;11780;13.904;100.620;2023-04-30T02:55:29;101062.25;;;30.64;67.89
23223;BME280;11780;13.904;100.620;2023-04-30T02:57:59;101065.19;;;30.68;68.56
23223;BME280;11780;13.904;100.620;2023-04-30T03:00:31;101051.03;;;30.61;69.64
23223;BME280;11780;13.904;100.620;2023-04-30T03:03:01;101036.63;;;30.50;70.74
23223;BME280;11780;13.904;100.620;2023-04-30T11:18:47;100697.00;;;31.08;66.41
23223;BME280;11780;13.904;100.620;2023-04-30T11:21:21;100693.59;;;31.11;66.21
23223;BME280;11780;13.904;100.620;2023-04-30T11:23:51;100700.75;;;31.12;65.79
23223;BME280;11780;13.904;100.620;2023-04-30T11:27:03;100716.03;;;31.09;65.86
23223;BME280;11780;13.904;100.620;2023-04-30T11:29:37;100725.13;;;31.10;65.84
23223;BME280;11780;13.904;100.620;2023-04-30T11:32:08;100734.72;;;31.12;65.83
23223;BME280;11780;13.904;100.620;2023-04-30T11:34:40;100748.38;;;31.09;65.84
23223;BME280;11780;13.904;100.620;2023-04-30T11:42:37;100749.19;;;31.09;65.81
23223;BME280;11780;13.904;100.620;2023-04-30T11:45:14;100748.84;;;31.11;65.68
23223;BME280;11780;13.904;100.620;2023-04-30T11:47:53;100752.28;;;31.17;65.65
23223;BME280;11780;13.904;100.620;2023-04-30T11:50:26;100760.28;;;31.18;65.56
23223;BME280;11780;13.904;100.620;2023-04-30T11:53:01;100774.09;;;31.18;65.77
23223;BME280;11780;13.904;100.620;2023-04-30T11:55:32;100787.91;;;31.18;65.88
23223;BME280;11780;13.904;100.620;2023-04-30T11:58:03;100782.38;;;31.18;65.57
23223;BME280;11780;13.904;100.620;2023-04-30T12:00:33;100790.97;;;31.17;65.91
23223;BME280;11780;13.904;100.620;2023-04-30T12:03:04;100793.88;;;31.11;65.94
23223;BME280;11780;13.904;100.620;2023-04-30T12:05:39;100807.06;;;31.14;65.90
23223;BME280;11780;13.904;100.620;2023-04-30T12:08:10;100804.13;;;31.11;65.69
23223;BME280;11780;13.904;100.620;2023-04-30T12:10:41;100810.16;;;31.13;65.57
23223;BME280;11780;13.904;100.620;2023-04-30T12:13:15;100808.69;;;31.16;65.79
23223;BME280;11780;13.904;100.620;2023-04-30T12:15:57;100812.28;;;31.16;65.75
23223;BME280;11780;13.904;100.620;2023-04-30T12:18:28;100822.19;;;31.17;65.39
23223;BME280;11780;13.904;100.620;2023-04-30T12:20:58;100828.84;;;31.16;65.53
23223;BME280;11780;13.904;100.620;2023-04-30T12:23:29;100826.59;;;31.18;65.69
23223;BME280;11780;13.904;100.620;2023-04-30T12:26:00;100823.34;;;31.16;65.63
23223;BME280;11780;13.904;100.620;2023-04-30T12:28:30;100833.38;;;31.12;65.67
23223;BME280;11780;13.904;100.620;2023-04-30T12:31:03;100843.13;;;31.09;65.92
23223;BME280;11780;13.904;100.620;2023-04-30T12:33:34;100842.00;;;31.10;65.68
23223;BME280;11780;13.904;100.620;2023-04-30T12:36:08;100842.19;;;31.14;65.57
23223;BME280;11780;13.904;100.620;2023-04-30T12:38:42;100830.09;;;31.10;65.47
23223;BME280;11780;13.904;100.620;2023-04-30T12:41:13;100832.56;;;31.11;65.53
23223;BME280;11780;13.904;100.620;2023-04-30T12:43:47;100829.50;;;31.13;65.34
23223;BME280;11780;13.904;100.620;2023-04-30T12:46:25;100828.72;;;31.21;65.12
23223;BME280;11780;13.904;100.620;2023-04-30T12:48:56;100835.53;;;31.15;65.45
23223;BME280;11780;13.904;100.620;2023-04-30T12:51:28;100832.06;;;31.09;65.45
23223;BME280;11780;13.904;100.620;2023-04-30T12:54:02;100844.41;;;31.12;65.52
23223;BME280;11780;13.904;100.620;2023-04-30T12:56:32;100854.19;;;31.09;65.47
23223;BME280;11780;13.904;100.620;2023-04-30T12:59:13;100856.00;;;31.14;65.54
23223;BME280;11780;13.904;100.620;2023-04-30T13:01:44;100858.56;;;31.10;65.31
23223;BME280;11780;13.904;100.620;2023-04-30T13:04:14;100858.91;;;31.18;65.35
23223;BME280;11780;13.904;100.620;2023-04-30T13:06:46;100865.59;;;31.25;65.24
23223;BME280;11780;13.904;100.620;2023-04-30T13:09:16;100862.53;;;31.27;65.31
23223;BME280;11780;13.904;100.620;2023-04-30T13:11:47;100872.75;;;31.35;65.22
23223;BME280;11780;13.904;100.620;2023-04-30T13:14:19;100865.94;;;31.33;65.29
23223;BME280;11780;13.904;100.620;2023-04-30T13:16:50;100859.28;;;31.34;65.13
23223;BME280;11780;13.904;100.620;2023-04-30T13:19:20;100874.25;;;31.41;65.39
23223;BME280;11780;13.904;100.620;2023-04-30T13:21:51;100875.69;;;31.39;65.07
23223;BME280;11780;13.904;100.620;2023-04-30T13:24:22;100889.34;;;31.35;65.38
23223;BME280;11780;13.904;100.620;2023-04-30T13:26:53;100890.34;;;31.39;65.42
23223;BME280;11780;13.904;100.620;2023-04-30T13:29:24;100903.16;;;31.35;65.33
23223;BME280;11780;13.904;100.620;2023-04-30T13:31:54;100904.94;;;31.40;65.33
23223;BME280;11780;13.904;100.620;2023-04-30T13:34:25;100906.56;;;31.41;65.41
23223;BME280;11780;13.904;100.620;2023-04-30T13:36:55;100918.13;;;31.43;65.45
23223;BME280;11780;13.904;100.620;2023-04-30T13:39:25;100920.25;;;31.46;65.14
23223;BME280;11780;13.904;100.620;2023-04-30T13:41:56;100930.19;;;31.47;65.53
23223;BME280;11780;13.904;100.620;2023-04-30T13:44:27;100936.00;;;31.46;65.45
23223;BME280;11780;13.904;100.620;2023-04-30T13:46:57;100947.06;;;31.46;65.54
23223;BME280;11780;13.904;100.620;2023-04-30T13:49:28;100947.91;;;31.46;65.38
23223;BME280;11780;13.904;100.620;2023-04-30T13:51:58;100940.75;;;31.45;65.62
23223;BME280;11780;13.904;100.620;2023-04-30T13:54:29;100947.41;;;31.53;65.46
23223;BME280;11780;13.904;100.620;2023-04-30T13:56:59;100943.03;;;31.52;65.51
23223;BME280;11780;13.904;100.620;2023-04-30T13:59:30;100944.50;;;31.49;65.60
23223;BME280;11780;13.904;100.620;2023-04-30T14:02:01;100959.94;;;31.50;65.84
23223;BME280;11780;13.904;100.620;2023-04-30T14:04:32;100962.38;;;31.52;65.67
23223;BME280;11780;13.904;100.620;2023-04-30T14:07:03;100969.53;;;31.53;65.67
23223;BME280;11780;13.904;100.620;2023-04-30T14:09:34;100972.13;;;31.49;65.91
23223;BME280;11780;13.904;100.620;2023-04-30T14:12:04;100973.59;;;31.55;65.86
23223;BME280;11780;13.904;100.620;2023-04-30T14:14:36;100965.47;;;31.50;66.13
23223;BME280;11780;13.904;100.620;2023-04-30T14:17:06;100965.63;;;31.54;65.75
23223;BME280;11780;13.904;100.620;2023-04-30T14:19:37;100966.28;;;31.51;65.74
23223;BME280;11780;13.904;100.620;2023-04-30T14:22:07;100958.97;;;31.55;65.74
23223;BME280;11780;13.904;100.620;2023-04-30T14:24:38;100978.16;;;31.51;66.03
23223;BME280;11780;13.904;100.620;2023-04-30T14:27:09;100971.94;;;31.46;66.02
23223;BME280;11780;13.904;100.620;2023-04-30T14:29:40;100977.34;;;31.51;65.96
23223;BME280;11780;13.904;100.620;2023-04-30T14:32:12;100968.25;;;31.50;66.06
23223;BME280;11780;13.904;100.620;2023-04-30T14:34:43;100967.09;;;31.51;66.08
23223;BME280;11780;13.904;100.620;2023-04-30T14:37:14;100974.25;;;31.52;65.91
23223;BME280;11780;13.904;100.620;2023-04-30T14:39:45;100980.59;;;31.53;66.00
23223;BME280;11780;13.904;100.620;2023-04-30T14:42:16;100980.59;;;31.53;66.06
23223;BME280;11780;13.904;100.620;2023-04-30T14:44:46;100980.44;;;31.49;66.14
23223;BME280;11780;13.904;100.620;2023-04-30T14:47:17;100984.81;;;31.41;66.14
23223;BME280;11780;13.904;100.620;2023-04-30T14:49:49;100988.03;;;31.35;66.22
23223;BME280;11780;13.904;100.620;2023-04-30T14:52:21;100984.28;;;31.31;66.17
23223;BME280;11780;13.904;100.620;2023-04-30T14:54:52;100983.19;;;31.49;66.33
23223;BME280;11780;13.904;100.620;2023-04-30T14:57:22;100987.25;;;31.52;66.59
23223;BME280;11780;13.904;100.620;2023-04-30T14:59:53;100987.59;;;31.50;66.47
23223;BME280;11780;13.904;100.620;2023-04-30T15:02:26;100994.75;;;31.51;66.35
23223;BME280;11780;13.904;100.620;2023-04-30T15:04:57;101006.13;;;31.58;66.34
23223;BME280;11780;13.904;100.620;2023-04-30T15:07:27;101002.88;;;31.56;66.18
23223;BME280;11780;13.904;100.620;2023-04-30T15:09:58;101002.88;;;31.56;66.37
23223;BME280;11780;13.904;100.620;2023-04-30T15:12:28;101003.88;;;31.61;66.08
23223;BME280;11780;13.904;100.620;2023-04-30T15:14:58;101007.75;;;31.59;65.93
23223;BME280;11780;13.904;100.620;2023-04-30T15:17:29;101005.50;;;31.62;66.00
23223;BME280;11780;13.904;100.620;2023-04-30T15:20:06;101010.03;;;31.57;66.39
23223;BME280;11780;13.904;100.620;2023-04-30T15:22:37;101000.41;;;31.46;66.40
23223;BME280;11780;13.904;100.620;2023-04-30T15:25:08;101015.19;;;31.33;66.60
23223;BME280;11780;13.904;100.620;2023-04-30T15:27:38;101017.94;;;31.33;66.58
23223;BME280;11780;13.904;100.620;2023-04-30T15:30:10;101009.50;;;31.29;66.61
23223;BME280;11780;13.904;100.620;2023-04-30T15:32:41;101006.72;;;31.29;67.00
23223;BME280;11780;13.904;100.620;2023-04-30T15:35:11;101006.22;;;31.27;66.79
23223;BME280;11780;13.904;100.620;2023-04-30T15:37:42;101003.47;;;31.27;66.91
23223;BME280;11780;13.904;100.620;2023-04-30T15:40:13;101011.56;;;31.23;67.09
23223;BME280;11780;13.904;100.620;2023-04-30T15:42:44;101012.22;;;31.20;67.18
23223;BME280;11780;13.904;100.620;2023-04-30T15:45:14;101017.25;;;31.18;67.20
23223;BME280;11780;13.904;100.620;2023-04-30T15:47:45;101018.22;;;31.13;67.26
23223;BME280;11780;13.904;100.620;2023-04-30T15:50:15;101020.44;;;31.11;67.21
23223;BME280;11780;13.904;100.620;2023-04-30T15:52:47;101011.31;;;31.11;67.32
23223;BME280;11780;13.904;100.620;2023-04-30T15:55:17;101004.16;;;31.10;67.31
23223;BME280;11780;13.904;100.620;2023-04-30T15:57:48;101002.75;;;31.12;67.22
23223;BME280;11780;13.904;100.620;2023-04-30T16:00:19;101001.41;;;31.10;67.54
23223;BME280;11780;13.904;100.620;2023-04-30T16:02:51;100995.28;;;31.13;67.43
23223;BME280;11780;13.904;100.620;2023-04-30T16:05:22;100994.66;;;31.16;67.33
23223;BME280;11780;13.904;100.620;2023-04-30T16:07:52;100989.13;;;31.16;67.20
23223;BME280;11780;13.904;100.620;2023-04-30T16:10:23;100977.56;;;31.14;67.23
23223;BME280;11780;13.904;100.620;2023-04-30T16:12:53;100979.81;;;31.12;67.20
23223;BME280;11780;13.904;100.620;2023-04-30T16:15:24;100974.81;;;31.14;67.24
23223;BME280;11780;13.904;100.620;2023-04-30T16:17:55;100975.31;;;31.16;67.21
23223;BME280;11780;13.904;100.620;2023-04-30T16:20:26;100970.09;;;31.14;67.07
23223;BME280;11780;13.904;100.620;2023-04-30T16:22:57;100963.75;;;31.14;67.08
23223;BME280;11780;13.904;100.620;2023-04-30T16:25:27;100951.69;;;31.10;67.31
23223;BME280;11780;13.904;100.620;2023-04-30T16:27:57;100950.03;;;31.09;67.23
23223;BME280;11780;13.904;100.620;2023-04-30T16:30:28;100941.25;;;31.07;67.38
23223;BME280;11780;13.904;100.620;2023-04-30T16:32:59;100932.34;;;31.10;67.19
23223;BME280;11780;13.904;100.620;2023-04-30T16:35:29;100939.50;;;31.11;67.34
23223;BME280;11780;13.904;100.620;2023-04-30T16:38:00;100935.59;;;31.12;67.47
23223;BME280;11780;13.904;100.620;2023-04-30T16:40:32;100930.41;;;31.10;67.32
23223;BME280;11780;13.904;100.620;2023-04-30T16:43:03;100937.69;;;31.06;67.54
23223;BME280;11780;13.904;100.620;2023-04-30T16:45:34;100933.47;;;31.09;67.49
23223;BME280;11780;13.904;100.620;2023-04-30T16:48:05;100930.88;;;31.04;67.35
23223;BME280;11780;13.904;100.620;2023-04-30T16:50:36;100925.19;;;31.09;67.50
23223;BME280;11780;13.904;100.620;2023-04-30T16:53:06;100920.63;;;31.04;67.64
23223;BME280;11780;13.904;100.620;2023-04-30T16:55:37;100925.50;;;31.07;67.69
23223;BME280;11780;13.904;100.620;2023-04-30T16:58:07;100908.78;;;31.04;67.62
23223;BME280;11780;13.904;100.620;2023-04-30T17:00:38;100916.56;;;31.02;67.73
23223;BME280;11780;13.904;100.620;2023-04-30T17:03:08;100919.16;;;31.07;67.66
23223;BME280;11780;13.904;100.620;2023-04-30T17:05:39;100916.41;;;31.07;67.62
23223;BME280;11780;13.904;100.620;2023-04-30T17:08:10;100911.53;;;31.04;67.57
23223;BME280;11780;13.904;100.620;2023-04-30T17:10:40;100910.22;;;31.01;67.57
23223;BME280;11780;13.904;100.620;2023-04-30T17:13:11;100909.41;;;31.01;67.41
23223;BME280;11780;13.904;100.620;2023-04-30T17:15:42;100901.63;;;31.03;67.49
23223;BME280;11780;13.904;100.620;2023-04-30T17:18:13;100897.72;;;31.04;67.55
23223;BME280;11780;13.904;100.620;2023-04-30T17:20:44;100899.34;;;31.05;67.47
23223;BME280;11780;13.904;100.620;2023-04-30T17:23:15;100895.47;;;31.06;67.50
23223;BME280;11780;13.904;100.620;2023-04-30T17:25:46;100899.66;;;31.03;67.37
23223;BME280;11780;13.904;100.620;2023-04-30T17:28:17;100894.75;;;31.00;67.41
23223;BME280;11780;13.904;100.620;2023-04-30T17:30:47;100899.66;;;31.03;67.49
23223;BME280;11780;13.904;100.620;2023-04-30T17:33:18;100900.50;;;31.04;67.26
23223;BME280;11780;13.904;100.620;2023-04-30T17:35:49;100896.09;;;31.03;67.43
23223;BME280;11780;13.904;100.620;2023-04-30T17:38:19;100892.19;;;31.04;67.46
23223;BME280;11780;13.904;100.620;2023-04-30T17:40:51;100894.13;;;31.03;67.37
23223;BME280;11780;13.904;100.620;2023-04-30T17:43:23;100895.75;;;31.04;67.61
23223;BME280;11780;13.904;100.620;2023-04-30T17:45:53;100889.94;;;31.06;67.42
23223;BME280;11780;13.904;100.620;2023-04-30T17:48:25;100886.00;;;31.07;67.41
23223;BME280;11780;13.904;100.620;2023-04-30T17:50:56;100885.19;;;31.06;67.43
23223;BME280;11780;13.904;100.620;2023-04-30T17:53:26;100877.38;;;30.99;67.59
23223;BME280;11780;13.904;100.620;2023-04-30T17:55:57;100875.44;;;31.00;67.64
23223;BME280;11780;13.904;100.620;2023-04-30T17:58:29;100873.34;;;30.97;67.46
23223;BME280;11780;13.904;100.620;2023-04-30T18:00:59;100873.34;;;30.97;67.66
23223;BME280;11780;13.904;100.620;2023-04-30T18:03:30;100868.28;;;30.99;67.65
23223;BME280;11780;13.904;100.620;2023-04-30T18:06:01;100872.00;;;30.94;67.48
23223;BME280;11780;13.904;100.620;2023-04-30T18:08:32;100862.59;;;30.95;67.62
23223;BME280;11780;13.904;100.620;2023-04-30T18:11:03;100862.75;;;30.99;67.62
23223;BME280;11780;13.904;100.620;2023-04-30T18:13:33;100849.44;;;31.01;67.56
23223;BME280;11780;13.904;100.620;2023-04-30T18:16:04;100846.00;;;30.95;67.79
23223;BME280;11780;13.904;100.620;2023-04-30T18:18:35;100844.38;;;30.94;67.68
23223;BME280;11780;13.904;100.620;2023-04-30T18:21:05;100850.25;;;30.93;67.71
23223;BME280;11780;13.904;100.620;2023-04-30T18:23:37;100847.78;;;30.91;67.82
23223;BME280;11780;13.904;100.620;2023-04-30T18:26:08;100850.09;;;30.89;68.09
23223;BME280;11780;13.904;100.620;2023-04-30T18:28:39;100847.63;;;30.88;68.35
23223;BME280;11780;13.904;100.620;2023-04-30T18:31:10;100849.59;;;30.87;68.22
23223;BME280;11780;13.904;100.620;2023-04-30T18:33:41;100848.75;;;30.87;68.23
23223;BME280;11780;13.904;100.620;2023-04-30T18:36:12;100848.94;;;30.90;68.22
23223;BME280;11780;13.904;100.620;2023-04-30T18:38:42;100842.94;;;30.88;68.33
23223;BME280;11780;13.904;100.620;2023-04-30T18:41:14;100840.47;;;30.87;68.37
23223;BME280;11780;13.904;100.620;2023-04-30T18:43:45;100831.06;;;30.88;68.33
23223;BME280;11780;13.904;100.620;2023-04-30T18:46:15;100837.06;;;30.90;68.23
23223;BME280;11780;13.904;100.620;2023-04-30T18:48:46;100837.91;;;30.90;68.06
23223;BME280;11780;13.904;100.620;2023-04-30T18:51:16;100838.22;;;30.89;68.17
23223;BME280;11780;13.904;100.620;2023-04-30T18:53:47;100828.44;;;30.91;68.03
23223;BME280;11780;13.904;100.620;2023-04-30T18:56:19;100837.91;;;30.90;68.08
23223;BME280;11780;13.904;100.620;2023-04-30T18:58:50;100836.91;;;30.86;68.11
23223;BME280;11780;13.904;100.620;2023-04-30T19:01:21;100829.75;;;30.85;68.36
23223;BME280;11780;13.904;100.620;2023-04-30T19:03:56;100838.53;;;30.87;68.38
23223;BME280;11780;13.904;100.620;2023-04-30T19:06:26;100825.22;;;30.89;68.11
23223;BME280;11780;13.904;100.620;2023-04-30T19:08:56;100823.91;;;30.87;68.12
23223;BME280;11780;13.904;100.620;2023-04-30T19:11:28;100822.75;;;30.88;68.10
23223;BME280;11780;13.904;100.620;2023-04-30T19:14:00;100810.59;;;30.89;68.34
23223;BME280;11780;13.904;100.620;2023-04-30T19:16:30;100811.09;;;30.91;68.30
23223;BME280;11780;13.904;100.620;2023-04-30T19:19:00;100814.63;;;30.91;68.15
23223;BME280;11780;13.904;100.620;2023-04-30T19:21:31;100810.75;;;30.92;68.19
23223;BME280;11780;13.904;100.620;2023-04-30T19:24:04;100802.00;;;30.90;68.23
23223;BME280;11780;13.904;100.620;2023-04-30T19:26:35;100802.47;;;30.92;68.22
23223;BME280;11780;13.904;100.620;2023-04-30T19:29:06;100800.84;;;30.91;68.20
23223;BME280;11780;13.904;100.620;2023-04-30T19:31:36;100794.66;;;30.94;68.22
23223;BME280;11780;13.904;100.620;2023-04-30T19:34:06;100791.41;;;30.92;68.12
23223;BME280;11780;13.904;100.620;2023-04-30T19:36:37;100794.66;;;30.94;67.99
23223;BME280;11780;13.904;100.620;2023-04-30T19:39:07;100799.69;;;30.92;68.01
23223;BME280;11780;13.904;100.620;2023-04-30T19:41:38;100811.09;;;30.91;67.99
23223;BME280;11780;13.904;100.620;2023-04-30T19:44:08;100818.88;;;30.89;68.13
23223;BME280;11780;13.904;100.620;2023-04-30T19:46:40;100821.63;;;30.89;68.19
23223;BME280;11780;13.904;100.620;2023-04-30T19:49:11;100813.03;;;30.90;68.23
23223;BME280;11780;13.904;100.620;2023-04-30T19:51:41;100820.50;;;30.90;68.16
23223;BME280;11780;13.904;100.620;2023-04-30T19:54:11;100819.38;;;30.91;68.28
23223;BME280;11780;13.904;100.620;2023-04-30T19:56:42;100811.72;;;30.88;68.54
23223;BME280;11780;13.904;100.620;2023-04-30T19:59:13;100800.50;;;30.84;68.61
23223;BME280;11780;13.904;100.620;2023-04-30T20:01:44;100812.19;;;30.81;68.49
23223;BME280;11780;13.904;100.620;2023-04-30T20:04:14;100808.94;;;30.79;68.44
23223;BME280;11780;13.904;100.620;2023-04-30T20:06:44;100808.94;;;30.79;68.70
23223;BME280;11780;13.904;100.620;2023-04-30T20:09:15;100817.22;;;30.79;68.68
23223;BME280;11780;13.904;100.620;2023-04-30T20:11:46;100817.72;;;30.81;68.84
23223;BME280;11780;13.904;100.620;2023-04-30T20:14:18;100817.84;;;30.76;68.73
23223;BME280;11780;13.904;100.620;2023-04-30T20:16:49;100812.66;;;30.74;68.67
23223;BME280;11780;13.904;100.620;2023-04-30T20:19:23;100815.75;;;30.73;68.73
23223;BME280;11780;13.904;100.620;2023-04-30T20:21:54;100817.69;;;30.72;68.88
23223;BME280;11780;13.904;100.620;2023-04-30T20:24:24;100817.53;;;30.68;68.98
23223;BME280;11780;13.904;100.620;2023-04-30T20:26:54;100816.06;;;30.71;68.96
23223;BME280;11780;13.904;100.620;2023-04-30T20:29:25;100817.84;;;30.76;68.76
23223;BME280;11780;13.904;100.620;2023-04-30T20:31:58;100816.25;;;30.75;68.81
23223;BME280;11780;13.904;100.620;2023-04-30T20:34:28;100812.84;;;30.78;68.58
23223;BME280;11780;13.904;100.620;2023-04-30T20:36:59;100805.69;;;30.77;68.67
23223;BME280;11780;13.904;100.620;2023-04-30T20:39:29;100800.16;;;30.77;68.63
23223;BME280;11780;13.904;100.620;2023-04-30T20:41:59;100804.25;;;30.79;68.79
23223;BME280;11780;13.904;100.620;2023-04-30T20:44:30;100802.47;;;30.75;68.68
23223;BME280;11780;13.904;100.620;2023-04-30T20:47:01;100803.09;;;30.72;68.86
23223;BME280;11780;13.904;100.620;2023-04-30T20:49:33;100802.75;;;30.73;68.66
23223;BME280;11780;13.904;100.620;2023-04-30T20:52:03;100799.00;;;30.69;68.70
23223;BME280;11780;13.904;100.620;2023-04-30T20:54:34;100796.56;;;30.67;68.47
23223;BME280;11780;13.904;100.620;2023-04-30T20:57:04;100793.94;;;30.62;68.54
23223;BME280;11780;13.904;100.620;2023-04-30T20:59:36;100797.72;;;30.66;68.67
23223;BME280;11780;13.904;100.620;2023-04-30T21:02:06;100792.19;;;30.66;68.75
23223;BME280;11780;13.904;100.620;2023-04-30T21:04:39;100787.16;;;30.68;68.67
23223;BME280;11780;13.904;100.620;2023-04-30T21:07:09;100793.31;;;30.65;68.76
23223;BME280;11780;13.904;100.620;2023-04-30T21:09:40;100783.91;;;30.66;68.70
23223;BME280;11780;13.904;100.620;2023-04-30T21:12:10;100788.28;;;30.67;68.78
23223;BME280;11780;13.904;100.620;2023-04-30T21:14:41;100798.34;;;30.63;68.75
23223;BME280;11780;13.904;100.620;2023-04-30T21:17:12;100796.22;;;30.60;68.65
23223;BME280;11780;13.904;100.620;2023-04-30T21:19:42;100795.41;;;30.60;69.01
23223;BME280;11780;13.904;100.620;2023-04-30T21:22:13;100782.75;;;30.59;69.13